createdAt,value
2022-08-21T00:01:44.628Z,4.37
2022-08-21T00:04:14.567Z,4.07
2022-08-21T00:06:47.841Z,3.77
2022-08-21T00:09:14.733Z,4.77
2022-08-21T00:11:41.480Z,4.67
2022-08-21T00:14:11.112Z,5.33
2022-08-21T00:16:38.091Z,4.43
2022-08-21T00:19:05.367Z,3.73
2022-08-21T00:21:32.455Z,4.37
2022-08-21T00:23:59.315Z,4.67
2022-08-21T00:26:26.193Z,4.50
2022-08-21T00:28:53.729Z,5.27
2022-08-21T00:31:22.771Z,3.63
2022-08-21T00:33:50.594Z,5.00
2022-08-21T00:36:17.522Z,4.20
2022-08-21T00:38:44.277Z,4.73
2022-08-21T00:41:20.983Z,4.33
2022-08-21T00:43:59.458Z,4.80
2022-08-21T00:46:28.543Z,4.13
2022-08-21T00:48:58.685Z,3.30
2022-08-21T00:51:47.489Z,4.93
2022-08-21T00:54:19.042Z,4.60
2022-08-21T00:56:54.010Z,4.10
2022-08-21T00:59:24.206Z,4.87
2022-08-21T01:01:51.678Z,4.17
2022-08-21T01:04:18.690Z,3.97
2022-08-21T01:06:45.695Z,4.67
2022-08-21T01:09:14.102Z,4.57
2022-08-21T01:11:43.918Z,5.50
2022-08-21T01:14:13.075Z,4.70
2022-08-21T01:16:43.924Z,4.43
2022-08-21T01:19:11.858Z,4.20
2022-08-21T01:21:39.221Z,4.03
2022-08-21T01:24:06.773Z,3.77
2022-08-21T01:26:35.781Z,4.00
2022-08-21T01:29:08.783Z,4.77
2022-08-21T01:31:35.534Z,4.57
2022-08-21T01:34:02.516Z,4.70
2022-08-21T01:36:29.925Z,4.03
2022-08-21T01:38:57.229Z,3.80
2022-08-21T01:41:24.141Z,4.27
2022-08-21T01:43:51.178Z,5.00
2022-08-21T01:46:18.434Z,4.07
2022-08-21T01:48:45.445Z,3.53
2022-08-21T01:51:12.633Z,3.90
2022-08-21T01:53:39.723Z,5.90
2022-08-21T01:56:12.651Z,5.87
2022-08-21T01:58:42.153Z,4.33
2022-08-21T02:01:10.272Z,4.57
2022-08-21T02:03:38.253Z,4.60
2022-08-21T02:06:07.657Z,5.30
2022-08-21T02:08:35.534Z,6.40
2022-08-21T02:11:02.398Z,4.23
2022-08-21T02:13:29.660Z,4.87
2022-08-21T02:15:56.509Z,6.63
2022-08-21T02:18:23.231Z,3.80
2022-08-21T02:20:55.802Z,4.47
2022-08-21T02:23:27.317Z,4.83
2022-08-21T02:26:08.005Z,5.33
2022-08-21T02:28:36.250Z,3.97
2022-08-21T02:31:03.692Z,6.97
2022-08-21T02:33:30.736Z,6.93
2022-08-21T02:35:58.330Z,5.47
2022-08-21T02:38:28.709Z,3.60
2022-08-21T02:40:57.161Z,4.80
2022-08-21T02:43:26.782Z,4.17
2022-08-21T02:45:56.055Z,5.20
2022-08-21T02:48:26.997Z,4.13
2022-08-21T02:50:58.294Z,5.07
2022-08-21T02:53:25.710Z,4.93
2022-08-21T02:55:54.699Z,4.07
2022-08-21T02:58:34.252Z,4.00
2022-08-21T03:01:01.939Z,5.50
2022-08-21T03:03:30.203Z,5.03
2022-08-21T03:05:57.230Z,4.87
2022-08-21T03:08:27.715Z,5.73
2022-08-21T03:10:55.585Z,5.07
2022-08-21T03:13:22.382Z,3.97
2022-08-21T03:15:51.317Z,4.53
2022-08-21T03:18:18.248Z,4.40
2022-08-21T03:20:46.214Z,6.10
2022-08-21T03:23:16.726Z,4.80
2022-08-21T03:25:45.026Z,3.80
2022-08-21T03:28:16.169Z,5.87
2022-08-21T03:30:45.161Z,4.10
2022-08-21T03:33:13.002Z,5.90
2022-08-21T03:35:46.653Z,5.83
2022-08-21T03:38:14.299Z,5.03
2022-08-21T03:40:43.114Z,4.90
2022-08-21T03:43:10.304Z,5.37
2022-08-21T03:45:38.320Z,4.20
2022-08-21T03:48:07.539Z,4.93
2022-08-21T03:50:40.994Z,4.87
2022-08-21T03:53:15.725Z,3.87
2022-08-21T03:55:47.706Z,4.50
2022-08-21T03:58:17.728Z,6.17
2022-08-21T04:00:47.304Z,5.40
2022-08-21T04:03:14.209Z,4.97
2022-08-21T04:05:41.820Z,4.30
2022-08-21T04:08:08.817Z,6.03
2022-08-21T04:10:38.026Z,6.20
2022-08-21T04:13:06.149Z,5.00
2022-08-21T04:15:33.977Z,4.57
2022-08-21T04:18:01.407Z,5.90
2022-08-21T04:20:28.410Z,5.40
2022-08-21T04:22:57.334Z,6.37
2022-08-21T04:25:26.319Z,5.50
2022-08-21T04:27:53.514Z,5.40
2022-08-21T04:30:20.597Z,4.57
2022-08-21T04:32:50.019Z,4.80
2022-08-21T04:35:22.418Z,4.03
2022-08-21T04:37:49.535Z,3.97
2022-08-21T04:40:19.228Z,4.93
2022-08-21T04:42:52.442Z,5.60
2022-08-21T04:45:28.757Z,3.73
2022-08-21T04:47:57.577Z,4.37
2022-08-21T04:50:30.367Z,4.53
2022-08-21T04:53:14.663Z,5.43
2022-08-21T04:55:43.003Z,5.40
2022-08-21T04:58:13.487Z,5.30
2022-08-21T05:00:41.662Z,5.47
2022-08-21T05:03:10.580Z,5.17
2022-08-21T05:05:38.095Z,4.37
2022-08-21T05:08:07.041Z,6.23
2022-08-21T05:10:34.213Z,4.90
2022-08-21T05:13:02.102Z,4.23
2022-08-21T05:15:29.148Z,4.73
2022-08-21T05:18:00.672Z,5.83
2022-08-21T05:20:29.010Z,6.33
2022-08-21T05:22:56.135Z,4.13
2022-08-21T05:25:23.664Z,4.10
2022-08-21T05:27:52.060Z,6.20
2022-08-21T05:30:20.347Z,5.80
2022-08-21T05:32:48.780Z,5.37
2022-08-21T05:35:15.994Z,6.87
2022-08-21T05:37:42.848Z,5.67
2022-08-21T05:40:21.880Z,5.47
2022-08-21T05:42:54.498Z,4.30
2022-08-21T05:45:43.289Z,7.80
2022-08-21T05:48:19.974Z,5.20
2022-08-21T05:51:12.041Z,5.57
2022-08-21T05:53:39.385Z,4.97
2022-08-21T05:56:07.913Z,5.10
2022-08-21T05:58:35.221Z,5.87
2022-08-21T06:01:03.867Z,5.23
2022-08-21T06:03:33.670Z,5.87
2022-08-21T06:06:00.873Z,6.57
2022-08-21T06:08:28.748Z,6.43
2022-08-21T06:10:57.770Z,5.97
2022-08-21T06:13:25.506Z,7.53
2022-08-21T06:16:03.748Z,6.80
2022-08-21T06:18:30.897Z,6.00
2022-08-21T06:20:57.613Z,6.93
2022-08-21T06:23:24.595Z,6.77
2022-08-21T06:26:00.476Z,6.93
2022-08-21T06:28:27.327Z,6.07
2022-08-21T06:30:54.161Z,6.17
2022-08-21T06:33:21.219Z,7.87
2022-08-21T06:35:48.102Z,7.00
2022-08-21T06:38:15.323Z,6.37
2022-08-21T06:40:43.725Z,6.23
2022-08-21T06:43:17.718Z,7.33
2022-08-21T06:45:45.449Z,7.10
2022-08-21T06:48:16.935Z,9.03
2022-08-21T06:50:46.861Z,7.03
2022-08-21T06:53:19.833Z,6.13
2022-08-21T06:55:47.699Z,6.20
2022-08-21T06:58:14.889Z,7.50
2022-08-21T07:00:46.097Z,7.30
2022-08-21T07:03:22.102Z,8.93
2022-08-21T07:05:48.856Z,7.47
2022-08-21T07:08:15.868Z,7.33
2022-08-21T07:10:42.953Z,7.80
2022-08-21T07:13:09.716Z,6.43
2022-08-21T07:15:36.537Z,6.77
2022-08-21T07:18:03.951Z,6.40
2022-08-21T07:20:31.877Z,7.63
2022-08-21T07:23:02.617Z,6.47
2022-08-21T07:25:29.482Z,5.80
2022-08-21T07:27:56.805Z,7.17
2022-08-21T07:30:24.035Z,5.83
2022-08-21T07:32:51.818Z,7.03
2022-08-21T07:35:20.170Z,7.73
2022-08-21T07:37:47.530Z,7.23
2022-08-21T07:40:16.298Z,6.77
2022-08-21T07:42:44.226Z,6.83
2022-08-21T07:45:12.399Z,7.23
2022-08-21T07:47:42.112Z,5.97
2022-08-21T07:50:12.470Z,6.17
2022-08-21T07:52:40.517Z,6.73
2022-08-21T07:55:09.337Z,9.23
2022-08-21T07:57:36.378Z,5.10
2022-08-21T08:00:06.242Z,5.20
2022-08-21T08:02:39.881Z,6.43
2022-08-21T08:05:11.255Z,7.67
2022-08-21T08:07:38.934Z,7.40
2022-08-21T08:10:07.872Z,7.00
2022-08-21T08:12:36.780Z,6.77
2022-08-21T08:15:06.608Z,7.27
2022-08-21T08:17:33.359Z,10.30
2022-08-21T08:20:02.156Z,7.43
2022-08-21T08:22:29.452Z,8.63
2022-08-21T08:24:56.634Z,10.27
2022-08-21T08:27:23.808Z,8.40
2022-08-21T08:29:50.964Z,8.90
2022-08-21T08:32:17.866Z,5.97
2022-08-21T08:34:44.617Z,5.32
2022-08-21T08:37:12.041Z,4.55
2022-08-21T08:39:39.083Z,7.25
2022-08-21T08:42:32.289Z,6.88
2022-08-21T08:45:08.895Z,4.75
2022-08-21T08:47:45.442Z,7.68
2022-08-21T08:50:17.891Z,7.68
2022-08-21T08:52:53.413Z,7.00
2022-08-21T08:55:33.506Z,6.70
2022-08-21T08:58:00.813Z,5.78
2022-08-21T09:00:27.494Z,4.15
2022-08-21T09:03:00.725Z,5.45
2022-08-21T09:05:56.393Z,2.83
2022-08-21T09:08:49.766Z,4.60
2022-08-21T09:11:16.633Z,4.78
2022-08-21T09:14:09.602Z,6.63
2022-08-21T09:16:39.225Z,6.43
2022-08-21T09:19:32.450Z,3.53
2022-08-21T09:22:18.231Z,4.38
2022-08-21T09:25:04.607Z,3.28
2022-08-21T09:27:33.007Z,4.82
2022-08-21T09:29:59.680Z,5.00
2022-08-21T09:32:37.189Z,6.18
2022-08-21T09:35:13.696Z,3.90
2022-08-21T09:38:03.720Z,2.75
2022-08-21T09:40:36.567Z,4.05
2022-08-21T09:43:06.445Z,2.90
2022-08-21T09:45:34.808Z,3.75
2022-08-21T09:48:22.879Z,7.13
2022-08-21T09:50:54.512Z,5.50
2022-08-21T09:53:26.900Z,4.82
2022-08-21T09:56:35.568Z,6.60
2022-08-21T09:59:13.121Z,5.18
2022-08-21T10:01:45.541Z,4.57
2022-08-21T10:04:12.744Z,5.00
2022-08-21T10:06:39.689Z,5.22
2022-08-21T10:09:20.958Z,3.85
2022-08-21T10:12:11.058Z,3.08
2022-08-21T10:14:57.929Z,3.50
2022-08-21T10:17:33.586Z,3.67
2022-08-21T10:20:12.670Z,5.70
2022-08-21T10:23:11.285Z,2.92
2022-08-21T10:25:57.159Z,4.85
2022-08-21T10:28:50.358Z,2.00
2022-08-21T10:31:19.740Z,2.97
2022-08-21T10:33:58.529Z,3.90
2022-08-21T10:36:47.986Z,5.75
2022-08-21T10:39:37.784Z,2.58
2022-08-21T10:42:11.904Z,3.30
2022-08-21T10:45:09.691Z,3.08
2022-08-21T10:47:43.322Z,2.10
2022-08-21T10:50:18.085Z,2.47
2022-08-21T10:53:18.074Z,2.83
2022-08-21T10:55:59.941Z,3.28
2022-08-21T10:58:41.227Z,3.10
2022-08-21T11:01:40.808Z,3.33
2022-08-21T11:04:29.909Z,2.72
2022-08-21T11:07:35.762Z,2.83
2022-08-21T11:10:13.743Z,6.30
2022-08-21T11:12:43.854Z,3.00
2022-08-21T11:15:37.732Z,3.38
2022-08-21T11:18:16.702Z,3.05
2022-08-21T11:21:04.635Z,2.40
2022-08-21T11:23:55.404Z,2.00
2022-08-21T11:26:44.244Z,2.88
2022-08-21T11:29:19.225Z,2.00
2022-08-21T11:32:23.182Z,2.38
2022-08-21T11:35:14.357Z,2.80
2022-08-21T11:37:47.521Z,4.45
2022-08-21T11:40:17.061Z,3.63
2022-08-21T11:43:08.283Z,2.42
2022-08-21T11:45:53.675Z,3.22
2022-08-21T11:48:40.080Z,1.98
2022-08-21T11:51:22.160Z,2.55
2022-08-21T11:54:15.523Z,3.72
2022-08-21T11:56:52.264Z,2.53
2022-08-21T11:59:40.754Z,3.17
2022-08-21T12:02:17.556Z,2.67
2022-08-21T12:04:53.447Z,1.75
2022-08-21T12:07:35.910Z,2.25
2022-08-21T12:10:08.238Z,1.25
2022-08-21T12:12:38.802Z,1.38
2022-08-21T12:15:21.065Z,2.53
2022-08-21T12:18:01.437Z,2.35
2022-08-21T12:20:50.196Z,2.35
2022-08-21T12:23:31.769Z,2.47
2022-08-21T12:26:20.358Z,3.83
2022-08-21T12:28:47.832Z,2.05
2022-08-21T12:31:27.571Z,2.35
2022-08-21T12:34:01.967Z,2.55
2022-08-21T12:36:43.513Z,1.58
2022-08-21T12:39:20.494Z,2.20
2022-08-21T12:42:01.962Z,1.63
2022-08-21T12:44:43.355Z,2.08
2022-08-21T12:47:44.930Z,1.67
2022-08-21T12:50:28.193Z,3.10
2022-08-21T12:53:03.292Z,1.40
2022-08-21T12:55:33.182Z,2.50
2022-08-21T12:58:01.053Z,4.13
2022-08-21T13:00:30.353Z,1.98
2022-08-21T13:02:58.494Z,1.98
2022-08-21T13:05:33.974Z,1.65
2022-08-21T13:08:05.390Z,2.30
2022-08-21T13:10:34.646Z,1.75
2022-08-21T13:13:12.604Z,2.13
2022-08-21T13:15:46.471Z,2.25
2022-08-21T13:18:27.465Z,1.98
2022-08-21T13:21:05.353Z,2.75
2022-08-21T13:23:32.325Z,2.25
2022-08-21T13:25:59.413Z,2.40
2022-08-21T13:28:34.664Z,1.40
2022-08-21T13:31:02.598Z,1.55
2022-08-21T13:33:37.632Z,2.38
2022-08-21T13:36:25.166Z,1.23
2022-08-21T13:38:54.336Z,1.02
2022-08-21T13:41:26.964Z,1.88
2022-08-21T13:44:02.773Z,2.92
2022-08-21T13:46:33.629Z,1.17
2022-08-21T13:49:05.745Z,1.15
2022-08-21T13:51:34.764Z,1.10
2022-08-21T13:54:01.826Z,3.50
2022-08-21T13:56:47.004Z,1.60
2022-08-21T13:59:25.646Z,1.90
2022-08-21T14:02:00.705Z,1.70
2022-08-21T14:04:59.186Z,1.67
2022-08-21T14:07:32.649Z,1.75
2022-08-21T14:10:06.616Z,1.35
2022-08-21T14:12:45.077Z,2.15
2022-08-21T14:15:15.396Z,2.20
2022-08-21T14:17:43.353Z,2.15
2022-08-21T14:20:25.630Z,1.13
2022-08-21T14:22:52.753Z,2.60
2022-08-21T14:25:25.411Z,2.55
2022-08-21T14:28:40.774Z,1.77
2022-08-21T14:31:21.978Z,0.90
2022-08-21T14:33:49.200Z,2.72
2022-08-21T14:36:16.074Z,2.15
2022-08-21T14:38:43.343Z,2.13
2022-08-21T14:41:17.105Z,1.25
2022-08-21T14:43:46.301Z,1.10
2022-08-21T14:46:23.932Z,1.33
2022-08-21T14:48:51.293Z,2.13
2022-08-21T14:51:18.634Z,1.45
2022-08-21T14:53:45.685Z,2.38
2022-08-21T14:56:14.222Z,2.70
2022-08-21T14:58:49.616Z,2.85
2022-08-21T15:01:19.295Z,1.30
2022-08-21T15:03:48.337Z,1.95
2022-08-21T15:06:17.167Z,1.00
2022-08-21T15:08:44.237Z,0.98
2022-08-21T15:11:41.084Z,1.48
2022-08-21T15:14:06.800Z,1.15
2022-08-21T15:16:34.597Z,1.83
2022-08-21T15:19:01.328Z,1.77
2022-08-21T15:21:27.998Z,1.35
2022-08-21T15:23:54.783Z,1.13
2022-08-21T15:26:24.138Z,1.23
2022-08-21T15:28:51.213Z,3.83
2022-08-21T15:31:18.165Z,1.88
2022-08-21T15:33:44.889Z,1.33
2022-08-21T15:36:11.678Z,1.38
2022-08-21T15:38:38.409Z,0.60
2022-08-21T15:41:06.502Z,1.20
2022-08-21T15:43:43.460Z,2.22
2022-08-21T15:46:13.553Z,0.95
2022-08-21T15:48:40.501Z,1.50
2022-08-21T15:51:07.289Z,1.08
2022-08-21T15:53:37.921Z,1.15
2022-08-21T15:56:05.037Z,1.65
2022-08-21T15:58:32.534Z,2.75
2022-08-21T16:01:01.242Z,2.63
2022-08-21T16:03:28.922Z,3.63
2022-08-21T16:05:57.678Z,2.33
2022-08-21T16:08:26.049Z,2.35
2022-08-21T16:10:54.023Z,1.88
2022-08-21T16:13:38.925Z,1.65
2022-08-21T16:16:06.762Z,3.38
2022-08-21T16:18:33.653Z,2.28
2022-08-21T16:21:00.469Z,1.05
2022-08-21T16:23:27.158Z,1.25
2022-08-21T16:25:54.072Z,1.58
2022-08-21T16:28:21.807Z,1.10
2022-08-21T16:30:50.625Z,1.00
2022-08-21T16:33:30.533Z,1.45
2022-08-21T16:35:57.356Z,1.70
2022-08-21T16:38:24.670Z,2.15
2022-08-21T16:40:51.398Z,1.45
2022-08-21T16:43:26.845Z,1.85
2022-08-21T16:45:54.942Z,1.25
2022-08-21T16:48:22.234Z,2.90
2022-08-21T16:50:51.087Z,1.50
2022-08-21T16:53:18.370Z,0.90
2022-08-21T16:55:46.138Z,1.25
2022-08-21T16:58:34.669Z,2.05
2022-08-21T17:01:05.515Z,2.10
2022-08-21T17:03:37.650Z,2.72
2022-08-21T17:06:05.349Z,1.88
2022-08-21T17:08:32.493Z,2.45
2022-08-21T17:11:00.147Z,1.45
2022-08-21T17:13:27.535Z,2.08
2022-08-21T17:15:54.554Z,3.13
2022-08-21T17:18:23.757Z,2.47
2022-08-21T17:20:51.229Z,1.98
2022-08-21T17:23:18.681Z,3.65
2022-08-21T17:25:48.601Z,2.40
2022-08-21T17:28:25.264Z,2.90
2022-08-21T17:30:58.129Z,1.60
2022-08-21T17:33:27.491Z,1.98
2022-08-21T17:35:54.372Z,2.10
2022-08-21T17:38:21.225Z,2.00
2022-08-21T17:40:49.000Z,2.00
2022-08-21T17:43:16.062Z,2.38
2022-08-21T17:45:43.724Z,1.40
2022-08-21T17:48:11.067Z,2.58
2022-08-21T17:50:39.702Z,2.03
2022-08-21T17:53:06.597Z,1.65
2022-08-21T17:55:34.717Z,2.05
2022-08-21T17:58:03.586Z,1.63
2022-08-21T18:00:31.806Z,2.55
2022-08-21T18:03:06.061Z,1.83
2022-08-21T18:05:33.028Z,1.58
2022-08-21T18:07:59.782Z,2.05
2022-08-21T18:10:27.616Z,1.98
2022-08-21T18:12:54.730Z,1.88
2022-08-21T18:15:21.842Z,1.92
2022-08-21T18:17:50.931Z,2.08
2022-08-21T18:20:20.929Z,2.47
2022-08-21T18:22:47.749Z,2.47
2022-08-21T18:25:15.360Z,1.27
2022-08-21T18:27:45.675Z,2.53
2022-08-21T18:30:16.174Z,1.20
2022-08-21T18:32:43.842Z,3.40
2022-08-21T18:35:11.565Z,2.95
2022-08-21T18:37:39.242Z,2.03
2022-08-21T18:40:08.596Z,1.93
2022-08-21T18:42:42.345Z,3.63
2022-08-21T18:45:17.207Z,2.83
2022-08-21T18:47:48.638Z,4.57
2022-08-21T18:50:19.033Z,2.87
2022-08-21T18:53:23.953Z,2.07
2022-08-21T18:55:34.959Z,2.03
2022-08-21T18:58:02.383Z,2.97
2022-08-21T19:00:34.182Z,3.63
2022-08-21T19:03:01.505Z,1.90
2022-08-21T19:05:28.386Z,1.33
2022-08-21T19:07:56.419Z,2.03
2022-08-21T19:10:24.175Z,2.47
2022-08-21T19:12:51.962Z,1.40
2022-08-21T19:15:21.642Z,2.73
2022-08-21T19:17:51.446Z,3.53
2022-08-21T19:20:26.367Z,1.60
2022-08-21T19:22:55.346Z,1.40
2022-08-21T19:25:33.430Z,1.03
2022-08-21T19:28:10.969Z,1.93
2022-08-21T19:30:41.841Z,1.30
2022-08-21T19:33:23.510Z,1.73
2022-08-21T19:35:52.520Z,2.53
2022-08-21T19:38:20.402Z,1.57
2022-08-21T19:40:47.850Z,1.80
2022-08-21T19:43:15.131Z,3.03
2022-08-21T19:45:42.235Z,1.63
2022-08-21T19:48:09.831Z,1.83
2022-08-21T19:50:37.011Z,1.63
2022-08-21T19:53:04.798Z,1.17
2022-08-21T19:55:43.401Z,1.83
2022-08-21T19:58:32.357Z,2.20
2022-08-21T20:00:59.171Z,2.47
2022-08-21T20:03:26.182Z,2.10
2022-08-21T20:05:53.957Z,1.73
2022-08-21T20:08:21.195Z,5.50
2022-08-21T20:13:35.505Z,1.67
2022-08-21T20:16:06.572Z,3.30
2022-08-21T20:18:34.931Z,1.50
2022-08-21T20:21:02.856Z,2.70
2022-08-21T20:23:33.001Z,1.83
2022-08-21T20:26:02.081Z,1.97
2022-08-21T20:28:32.902Z,1.73
2022-08-21T20:31:00.986Z,2.57
2022-08-21T20:33:30.121Z,3.60
2022-08-21T20:35:57.026Z,2.30
2022-08-21T20:38:24.335Z,1.40
2022-08-21T20:40:53.785Z,2.80
2022-08-21T20:43:22.859Z,1.93
2022-08-21T20:45:50.374Z,1.93
2022-08-21T20:48:32.762Z,2.73
2022-08-21T20:51:27.318Z,6.27
2022-08-21T20:54:12.784Z,1.30
2022-08-21T20:56:45.521Z,2.97
2022-08-21T20:59:26.442Z,2.50
2022-08-21T21:01:59.537Z,3.53
2022-08-21T21:04:40.046Z,1.37
2022-08-21T21:07:09.032Z,1.30
2022-08-21T21:09:45.599Z,2.43
2022-08-21T21:12:27.630Z,2.50
2022-08-21T21:14:59.127Z,2.20
2022-08-21T21:17:40.437Z,3.90
2022-08-21T21:20:16.577Z,2.00
2022-08-21T21:22:57.216Z,3.70
2022-08-21T21:25:40.529Z,2.00
2022-08-21T21:28:30.609Z,1.93
2022-08-21T21:30:57.745Z,2.37
2022-08-21T21:33:24.796Z,1.90
2022-08-21T21:35:57.077Z,2.90
2022-08-21T21:38:53.449Z,2.30
2022-08-21T21:41:44.752Z,1.37
2022-08-21T21:44:42.942Z,1.47
2022-08-21T21:47:26.745Z,1.57
2022-08-21T21:50:27.546Z,1.43
2022-08-21T21:53:01.211Z,1.37
2022-08-21T21:55:50.690Z,1.63
2022-08-21T21:58:27.349Z,4.50
2022-08-21T22:01:23.930Z,2.03
2022-08-21T22:04:18.481Z,1.33
2022-08-21T22:07:09.157Z,1.43
2022-08-21T22:09:45.408Z,2.93
2022-08-21T22:15:27.376Z,1.60
2022-08-21T22:18:09.987Z,1.10
2022-08-21T22:21:00.689Z,1.77
2022-08-21T22:23:32.982Z,3.90
2022-08-21T22:26:07.421Z,1.63
2022-08-21T22:28:39.273Z,1.17
2022-08-21T22:31:18.345Z,2.13
2022-08-21T22:34:07.162Z,2.67
2022-08-21T22:36:50.222Z,1.33
2022-08-21T22:39:39.557Z,1.43
2022-08-21T22:42:20.345Z,1.10
2022-08-21T22:44:53.411Z,1.57
2022-08-21T22:47:30.562Z,1.97
2022-08-21T22:50:04.395Z,1.37
2022-08-21T22:52:37.038Z,1.80
2022-08-21T22:55:39.034Z,1.90
2022-08-21T22:58:18.800Z,1.70
2022-08-21T23:00:54.584Z,3.23
2022-08-21T23:03:47.833Z,2.57
2022-08-21T23:06:49.356Z,2.47
2022-08-21T23:09:28.305Z,1.70
2022-08-21T23:11:58.093Z,1.83
2022-08-21T23:14:25.708Z,2.03
2022-08-21T23:16:59.216Z,1.37
2022-08-21T23:19:44.459Z,1.57
2022-08-21T23:22:44.671Z,3.00
2022-08-21T23:25:14.156Z,1.77
2022-08-21T23:28:06.010Z,2.37
2022-08-21T23:30:46.262Z,1.87
2022-08-21T23:33:43.085Z,2.17
2022-08-21T23:36:38.169Z,3.00
2022-08-21T23:39:14.070Z,1.13
2022-08-21T23:41:44.261Z,1.77
2022-08-21T23:48:06.496Z,1.40
2022-08-21T23:51:00.345Z,1.73
2022-08-21T23:54:02.175Z,1.37
2022-08-21T23:57:23.243Z,1.07
